createdAt,value
2017-06-06T00:01:12.241Z,91.30
2017-06-06T00:03:47.688Z,91.30
2017-06-06T00:06:17.432Z,91.20
2017-06-06T00:08:48.107Z,91.20
2017-06-06T00:11:17.868Z,90.90
2017-06-06T00:13:48.612Z,90.70
2017-06-06T00:16:37.307Z,90.20
2017-06-06T00:19:06.103Z,90.70
2017-06-06T00:21:51.947Z,90.80
2017-06-06T00:24:20.723Z,90.80
2017-06-06T00:26:52.847Z,90.50
2017-06-06T00:29:30.107Z,90.80
2017-06-06T00:32:02.115Z,90.50
2017-06-06T00:34:32.103Z,90.50
2017-06-06T00:37:00.895Z,90.60
2017-06-06T00:39:31.658Z,90.40
2017-06-06T00:42:00.423Z,90.50
2017-06-06T00:44:31.191Z,90.50
2017-06-06T00:47:01.991Z,90.60
2017-06-06T00:49:36.519Z,90.40
2017-06-06T00:52:06.219Z,90.30
2017-06-06T00:54:38.134Z,90.10
2017-06-06T00:57:06.935Z,90.30
2017-06-06T00:59:41.227Z,90.60
2017-06-06T01:02:11.915Z,90.60
2017-06-06T01:04:40.707Z,90.50
2017-06-06T01:07:10.427Z,90.70
2017-06-06T01:09:39.399Z,90.70
2017-06-06T01:12:29.563Z,90.90
2017-06-06T01:14:58.334Z,90.60
2017-06-06T01:17:30.975Z,90.60
2017-06-06T01:20:04.859Z,90.50
2017-06-06T01:22:35.631Z,90.50
2017-06-06T01:25:12.737Z,90.30
2017-06-06T01:27:46.507Z,90.30
2017-06-06T01:30:22.807Z,90.00
2017-06-06T01:32:57.387Z,90.10
2017-06-06T01:35:26.159Z,90.60
2017-06-06T01:37:54.930Z,90.70
2017-06-06T01:40:32.022Z,90.40
2017-06-06T01:43:00.803Z,90.80
2017-06-06T01:45:31.539Z,90.70
2017-06-06T01:48:00.322Z,90.50
2017-06-06T01:50:30.058Z,90.70
2017-06-06T01:53:02.539Z,90.60
2017-06-06T01:55:36.327Z,90.60
2017-06-06T01:58:06.154Z,91.00
2017-06-06T02:00:38.720Z,91.40
2017-06-06T02:03:16.091Z,91.60
2017-06-06T02:05:44.894Z,91.40
2017-06-06T02:08:13.691Z,91.20
2017-06-06T02:10:42.490Z,91.30
2017-06-06T02:13:18.999Z,91.00
2017-06-06T02:15:47.806Z,91.10
2017-06-06T02:18:16.591Z,91.00
2017-06-06T02:20:51.210Z,90.50
2017-06-06T02:23:19.983Z,90.20
2017-06-06T02:25:49.730Z,90.40
2017-06-06T02:28:19.510Z,90.40
2017-06-06T02:30:55.986Z,90.50
2017-06-06T02:33:27.802Z,90.90
2017-06-06T02:35:58.510Z,91.20
2017-06-06T02:38:31.202Z,91.20
2017-06-06T02:41:10.697Z,90.90
2017-06-06T02:43:40.445Z,91.10
2017-06-06T02:46:15.849Z,91.40
2017-06-06T02:48:44.654Z,91.60
2017-06-06T02:51:13.441Z,91.50
2017-06-06T02:53:46.245Z,91.50
2017-06-06T02:56:15.026Z,91.50
2017-06-06T02:58:43.857Z,91.30
2017-06-06T03:01:12.649Z,91.60
2017-06-06T03:03:41.433Z,91.50
2017-06-06T03:06:10.327Z,91.30
2017-06-06T03:08:39.113Z,91.20
2017-06-06T03:11:07.885Z,91.00
2017-06-06T03:13:36.761Z,91.20
2017-06-06T03:16:05.805Z,91.00
2017-06-06T03:18:34.581Z,91.00
2017-06-06T03:21:03.365Z,90.60
2017-06-06T03:23:32.169Z,90.60
2017-06-06T03:26:00.941Z,90.50
2017-06-06T03:28:29.717Z,90.60
2017-06-06T03:30:58.613Z,90.50
2017-06-06T03:33:27.381Z,91.10
2017-06-06T03:35:56.153Z,90.80
2017-06-06T03:38:24.952Z,90.90
2017-06-06T03:40:53.749Z,90.50
2017-06-06T03:43:22.549Z,90.10
2017-06-06T03:45:56.240Z,90.20
2017-06-06T03:48:25.629Z,89.70
2017-06-06T03:50:54.433Z,89.30
2017-06-06T03:53:23.224Z,89.20
2017-06-06T03:55:52.005Z,90.20
2017-06-06T03:58:20.893Z,90.00
2017-06-06T04:00:49.682Z,89.90
2017-06-06T04:03:18.573Z,90.30
2017-06-06T04:05:47.364Z,90.30
2017-06-06T04:08:16.260Z,90.00
2017-06-06T04:10:45.041Z,90.20
2017-06-06T04:13:13.848Z,90.40
2017-06-06T04:15:42.632Z,90.60
2017-06-06T04:18:11.508Z,90.70
2017-06-06T04:20:55.205Z,90.80
2017-06-06T04:23:24.568Z,90.60
2017-06-06T04:25:53.353Z,90.70
2017-06-06T04:28:22.164Z,90.80
2017-06-06T04:30:51.444Z,91.00
2017-06-06T04:33:23.632Z,91.20
2017-06-06T04:35:52.560Z,91.60
2017-06-06T04:38:21.768Z,91.70
2017-06-06T04:40:50.664Z,91.70
2017-06-06T04:43:19.452Z,91.70
2017-06-06T04:45:48.355Z,92.00
2017-06-06T04:48:17.135Z,92.50
2017-06-06T04:50:45.919Z,92.70
2017-06-06T04:53:14.719Z,92.80
2017-06-06T04:55:43.519Z,92.90
2017-06-06T04:58:12.375Z,92.70
2017-06-06T05:00:41.192Z,92.80
2017-06-06T05:03:10.076Z,93.10
2017-06-06T05:05:38.955Z,93.10
2017-06-06T05:08:07.751Z,93.00
2017-06-06T05:10:36.627Z,92.70
2017-06-06T05:13:05.526Z,92.60
2017-06-06T05:15:34.407Z,92.70
2017-06-06T05:18:03.195Z,92.60
2017-06-06T05:20:32.089Z,92.30
2017-06-06T05:23:00.983Z,92.50
2017-06-06T05:25:29.864Z,92.70
2017-06-06T05:27:58.647Z,92.80
2017-06-06T05:30:27.447Z,92.70
2017-06-06T05:32:56.220Z,92.40
2017-06-06T05:35:25.099Z,92.30
2017-06-06T05:37:54.683Z,92.20
2017-06-06T05:40:23.473Z,92.20
2017-06-06T05:42:52.479Z,92.50
2017-06-06T05:45:21.299Z,92.80
2017-06-06T05:47:50.088Z,92.50
2017-06-06T05:50:18.887Z,92.80
2017-06-06T05:52:47.691Z,92.70
2017-06-06T05:55:16.551Z,93.00
2017-06-06T05:57:45.332Z,92.60
2017-06-06T06:00:14.115Z,92.70
2017-06-06T06:02:42.936Z,92.40
2017-06-06T06:05:11.850Z,92.80
2017-06-06T06:07:40.683Z,92.50
2017-06-06T06:10:09.578Z,91.90
2017-06-06T06:12:38.367Z,91.90
2017-06-06T06:15:07.154Z,91.50
2017-06-06T06:17:35.927Z,91.30
2017-06-06T06:20:04.711Z,91.10
2017-06-06T06:22:33.503Z,91.40
2017-06-06T06:25:02.275Z,91.40
2017-06-06T06:27:31.058Z,91.40
2017-06-06T06:29:59.862Z,91.40
2017-06-06T06:32:28.631Z,91.10
2017-06-06T06:34:57.411Z,91.30
2017-06-06T06:37:26.227Z,90.90
2017-06-06T06:39:54.999Z,90.90
2017-06-06T06:42:23.786Z,91.00
2017-06-06T06:44:52.594Z,90.80
2017-06-06T06:47:21.374Z,90.90
2017-06-06T06:52:28.163Z,90.20
2017-06-06T06:54:56.991Z,90.00
2017-06-06T06:57:25.851Z,89.80
2017-06-06T06:59:54.746Z,89.10
2017-06-06T07:02:23.522Z,89.20
2017-06-06T07:04:52.326Z,89.30
2017-06-06T07:07:21.114Z,89.40
2017-06-06T07:09:49.902Z,88.40
2017-06-06T07:12:18.683Z,88.60
2017-06-06T07:14:47.570Z,87.50
2017-06-06T07:17:16.378Z,86.60
2017-06-06T07:19:45.166Z,86.80
2017-06-06T07:22:13.978Z,86.10
2017-06-06T07:24:42.755Z,85.20
2017-06-06T07:27:11.527Z,84.00
2017-06-06T07:29:40.314Z,83.40
2017-06-06T07:32:09.090Z,83.70
2017-06-06T07:34:37.878Z,83.80
2017-06-06T07:37:06.758Z,82.60
2017-06-06T07:39:35.546Z,81.60
2017-06-06T07:42:04.321Z,80.60
2017-06-06T07:44:33.222Z,82.00
2017-06-06T07:47:02.002Z,82.50
2017-06-06T07:49:30.802Z,81.50
2017-06-06T07:51:59.582Z,81.50
2017-06-06T07:54:28.362Z,80.20
2017-06-06T07:56:57.158Z,78.10
2017-06-06T07:59:26.149Z,78.70
2017-06-06T08:01:54.934Z,77.80
2017-06-06T08:04:23.697Z,77.90
2017-06-06T08:06:52.518Z,78.80
2017-06-06T08:09:21.302Z,79.70
2017-06-06T08:11:50.069Z,77.90
2017-06-06T08:14:18.878Z,79.10
2017-06-06T08:16:47.666Z,80.90
2017-06-06T08:19:16.434Z,79.40
2017-06-06T08:21:45.213Z,80.00
2017-06-06T08:24:13.989Z,80.40
2017-06-06T08:26:42.757Z,81.10
2017-06-06T08:29:11.537Z,81.60
2017-06-06T08:31:40.313Z,81.40
2017-06-06T08:34:09.085Z,81.40
2017-06-06T08:36:37.870Z,82.00
2017-06-06T08:39:06.641Z,82.40
2017-06-06T08:41:35.414Z,83.00
2017-06-06T08:44:04.205Z,81.70
2017-06-06T08:46:32.981Z,82.40
2017-06-06T08:49:01.753Z,83.10
2017-06-06T08:51:30.545Z,83.10
2017-06-06T08:53:59.309Z,83.10
2017-06-06T08:56:28.085Z,83.40
2017-06-06T08:58:56.869Z,83.20
2017-06-06T09:01:25.645Z,84.00
2017-06-06T09:03:54.417Z,82.80
2017-06-06T09:06:23.201Z,84.50
2017-06-06T09:08:51.977Z,85.00
2017-06-06T09:11:20.749Z,85.20
2017-06-06T09:13:49.537Z,85.40
2017-06-06T09:16:18.313Z,84.80
2017-06-06T09:18:47.084Z,86.20
2017-06-06T09:21:15.941Z,87.50
2017-06-06T09:23:44.824Z,86.50
2017-06-06T09:26:13.613Z,87.20
2017-06-06T09:28:42.512Z,87.30
2017-06-06T09:31:11.393Z,87.70
2017-06-06T09:33:40.216Z,88.30
2017-06-06T09:36:08.972Z,88.80
2017-06-06T09:38:39.848Z,89.10
2017-06-06T09:41:08.653Z,89.50
2017-06-06T09:43:37.440Z,89.30
2017-06-06T09:46:06.221Z,90.00
2017-06-06T09:48:35.932Z,90.40
2017-06-06T09:51:04.717Z,91.00
2017-06-06T09:53:33.524Z,91.20
2017-06-06T09:56:02.300Z,91.00
2017-06-06T09:58:31.087Z,91.10
2017-06-06T10:00:59.861Z,91.20
2017-06-06T10:03:28.648Z,91.40
2017-06-06T10:05:57.437Z,91.10
2017-06-06T10:08:26.408Z,91.00
2017-06-06T10:10:55.276Z,91.10
2017-06-06T10:13:24.164Z,91.10
2017-06-06T10:15:53.059Z,91.40
2017-06-06T10:18:21.946Z,91.80
2017-06-06T10:20:50.737Z,91.60
2017-06-06T10:23:19.629Z,91.80
2017-06-06T10:25:49.448Z,92.00
2017-06-06T10:28:18.244Z,92.40
2017-06-06T10:30:47.016Z,92.70
2017-06-06T10:33:15.888Z,93.00
2017-06-06T10:35:44.652Z,92.60
2017-06-06T10:38:13.428Z,92.70
2017-06-06T10:40:42.267Z,93.10
2017-06-06T10:43:11.155Z,93.00
2017-06-06T10:45:39.955Z,93.30
2017-06-06T10:48:08.731Z,93.60
2017-06-06T10:50:37.523Z,93.50
2017-06-06T10:53:06.307Z,93.70
2017-06-06T10:55:35.079Z,93.70
2017-06-06T10:58:04.483Z,94.00
2017-06-06T11:00:33.288Z,93.80
2017-06-06T11:03:02.264Z,93.70
2017-06-06T11:05:31.783Z,94.20
2017-06-06T11:08:00.563Z,94.20
2017-06-06T11:10:29.362Z,94.20
2017-06-06T11:12:58.255Z,94.40
2017-06-06T11:15:27.983Z,94.70
2017-06-06T11:17:57.444Z,94.40
2017-06-06T11:20:26.235Z,94.80
2017-06-06T11:22:55.051Z,94.60
2017-06-06T11:25:23.831Z,94.60
2017-06-06T11:27:52.623Z,94.40
2017-06-06T11:30:21.415Z,94.60
2017-06-06T11:32:50.211Z,94.70
2017-06-06T11:35:19.083Z,94.50
2017-06-06T11:37:47.879Z,94.50
2017-06-06T11:40:16.679Z,94.10
2017-06-06T11:42:45.452Z,94.10
2017-06-06T11:45:14.235Z,94.00
2017-06-06T11:47:43.023Z,93.60
2017-06-06T11:50:11.807Z,93.80
2017-06-06T11:52:40.686Z,93.80
2017-06-06T11:55:09.480Z,93.80
2017-06-06T11:57:38.363Z,93.90
2017-06-06T12:00:07.267Z,93.60
2017-06-06T12:02:36.155Z,93.00
2017-06-06T12:05:05.039Z,93.20
2017-06-06T12:07:33.819Z,93.80
2017-06-06T12:10:02.603Z,93.30
2017-06-06T12:12:31.407Z,93.50
2017-06-06T12:15:00.187Z,93.70
2017-06-06T12:17:28.971Z,93.90
2017-06-06T12:19:57.755Z,93.40
2017-06-06T12:22:26.537Z,93.50
2017-06-06T12:24:55.315Z,93.50
2017-06-06T12:27:24.135Z,92.90
2017-06-06T12:29:53.124Z,91.80
2017-06-06T12:32:21.915Z,90.00
2017-06-06T12:34:51.451Z,90.60
2017-06-06T12:37:20.474Z,87.80
2017-06-06T12:39:49.805Z,87.10
2017-06-06T12:42:18.583Z,90.00
2017-06-06T12:44:47.599Z,90.00
2017-06-06T12:47:16.395Z,89.60
2017-06-06T12:49:45.166Z,88.00
2017-06-06T12:52:13.935Z,86.50
2017-06-06T12:54:42.735Z,86.20
2017-06-06T12:57:11.523Z,87.30
2017-06-06T12:59:40.711Z,89.30
2017-06-06T13:02:09.516Z,89.90
2017-06-06T13:04:39.111Z,90.20
2017-06-06T13:07:07.883Z,90.80
2017-06-06T13:09:36.699Z,90.40
2017-06-06T13:12:05.894Z,89.20
2017-06-06T13:14:35.182Z,89.10
2017-06-06T13:17:03.959Z,90.10
2017-06-06T13:19:32.759Z,90.40
2017-06-06T13:22:01.531Z,91.10
2017-06-06T13:24:30.303Z,91.40
2017-06-06T13:26:59.071Z,92.00
2017-06-06T13:29:27.842Z,92.30
2017-06-06T13:31:56.626Z,92.50
2017-06-06T13:34:25.402Z,92.70
2017-06-06T13:36:54.187Z,92.50
2017-06-06T13:39:22.962Z,92.60
2017-06-06T13:41:51.731Z,92.60
2017-06-06T13:44:20.531Z,93.10
2017-06-06T13:46:49.318Z,93.40
2017-06-06T13:49:18.090Z,92.80
2017-06-06T13:51:46.899Z,93.00
2017-06-06T13:54:15.790Z,93.30
2017-06-06T13:56:44.670Z,93.00
2017-06-06T13:59:13.458Z,92.90
2017-06-06T14:01:42.254Z,93.20
2017-06-06T14:04:11.130Z,93.00
2017-06-06T14:06:39.902Z,93.10
2017-06-06T14:09:08.683Z,93.00
2017-06-06T14:11:37.447Z,92.50
2017-06-06T14:14:06.298Z,92.00
2017-06-06T14:16:35.086Z,92.60
2017-06-06T14:19:03.853Z,93.00
2017-06-06T14:21:32.651Z,93.60
2017-06-06T14:24:01.538Z,93.30
2017-06-06T14:26:30.318Z,93.10
2017-06-06T14:28:59.090Z,92.60
2017-06-06T14:31:27.893Z,93.60
2017-06-06T14:33:56.690Z,93.20
2017-06-06T14:36:26.297Z,93.80
2017-06-06T14:38:55.093Z,93.20
2017-06-06T14:41:23.858Z,93.50
2017-06-06T14:43:52.654Z,93.80
2017-06-06T14:46:21.522Z,93.40
2017-06-06T14:48:50.286Z,93.20
2017-06-06T14:51:19.125Z,93.40
2017-06-06T14:53:47.917Z,93.40
2017-06-06T14:56:16.805Z,93.30
2017-06-06T14:58:46.117Z,93.70
2017-06-06T15:01:14.998Z,93.40
2017-06-06T15:03:43.889Z,93.60
2017-06-06T15:06:12.658Z,93.80
2017-06-06T15:08:41.445Z,93.30
2017-06-06T15:11:10.237Z,93.20
2017-06-06T15:13:39.031Z,93.60
2017-06-06T15:16:07.917Z,93.40
2017-06-06T15:18:36.706Z,93.40
2017-06-06T15:21:05.474Z,93.90
2017-06-06T15:23:34.277Z,93.80
2017-06-06T15:26:03.065Z,93.60
2017-06-06T15:28:31.841Z,93.80
2017-06-06T15:31:00.613Z,93.70
2017-06-06T15:33:29.452Z,93.60
2017-06-06T15:35:58.225Z,93.90
2017-06-06T15:38:26.997Z,94.90
2017-06-06T15:40:55.802Z,94.80
2017-06-06T15:43:24.585Z,95.60
2017-06-06T15:45:53.360Z,94.60
2017-06-06T15:48:22.133Z,93.10
2017-06-06T15:50:50.897Z,92.70
2017-06-06T15:53:19.728Z,92.60
2017-06-06T15:55:48.517Z,93.20
2017-06-06T15:58:18.226Z,93.20
2017-06-06T16:00:47.116Z,93.30
2017-06-06T16:03:15.880Z,93.00
2017-06-06T16:05:44.696Z,92.40
2017-06-06T16:08:13.481Z,90.90
2017-06-06T16:10:42.244Z,91.60
2017-06-06T16:13:10.245Z,91.50
2017-06-06T16:15:39.124Z,86.70
2017-06-06T16:18:07.923Z,85.90
2017-06-06T16:20:36.712Z,85.80
2017-06-06T16:23:05.588Z,85.50
2017-06-06T16:25:34.376Z,86.10
2017-06-06T16:28:03.144Z,86.80
2017-06-06T16:30:31.956Z,86.30
2017-06-06T16:33:01.564Z,86.60
2017-06-06T16:35:30.337Z,86.30
2017-06-06T16:37:59.120Z,85.60
2017-06-06T16:40:27.884Z,86.40
2017-06-06T16:42:56.656Z,86.70
2017-06-06T16:45:25.437Z,87.20
2017-06-06T16:47:54.288Z,87.30
2017-06-06T16:50:23.056Z,88.70
2017-06-06T16:52:51.860Z,89.30
2017-06-06T16:55:20.636Z,89.60
2017-06-06T16:57:49.448Z,88.10
2017-06-06T17:00:18.343Z,88.80
2017-06-06T17:02:47.220Z,88.60
2017-06-06T17:05:16.111Z,88.90
2017-06-06T17:07:44.895Z,88.30
2017-06-06T17:10:13.687Z,88.80
2017-06-06T17:12:42.460Z,87.80
2017-06-06T17:15:11.359Z,88.60
2017-06-06T17:17:40.255Z,88.50
2017-06-06T17:20:09.036Z,89.30
2017-06-06T17:22:37.936Z,89.70
2017-06-06T17:25:06.723Z,89.90
2017-06-06T17:27:35.491Z,89.70
2017-06-06T17:30:04.295Z,88.50
2017-06-06T17:32:33.067Z,88.50
2017-06-06T17:35:01.863Z,88.40
2017-06-06T17:37:30.652Z,88.00
2017-06-06T17:39:59.447Z,88.90
2017-06-06T17:42:28.235Z,88.60
2017-06-06T17:44:57.119Z,88.20
2017-06-06T17:47:25.896Z,88.80
2017-06-06T17:49:54.691Z,89.20
2017-06-06T17:52:23.588Z,89.90
2017-06-06T17:54:52.375Z,89.90
2017-06-06T17:57:21.795Z,89.20
2017-06-06T17:59:50.671Z,89.90
2017-06-06T18:02:19.563Z,89.90
2017-06-06T18:04:48.352Z,89.90
2017-06-06T18:07:17.211Z,89.10
2017-06-06T18:09:45.947Z,89.30
2017-06-06T18:12:14.799Z,89.40
2017-06-06T18:14:43.586Z,89.40
2017-06-06T18:17:12.375Z,88.90
2017-06-06T18:19:41.163Z,90.30
2017-06-06T18:22:10.055Z,89.90
2017-06-06T18:24:38.831Z,90.00
2017-06-06T18:27:08.246Z,89.50
2017-06-06T18:29:37.040Z,90.00
2017-06-06T18:32:05.806Z,90.30
2017-06-06T18:34:34.587Z,90.40
2017-06-06T18:37:03.390Z,90.40
2017-06-06T18:39:32.182Z,90.70
2017-06-06T18:42:00.959Z,90.50
2017-06-06T18:44:29.759Z,90.30
2017-06-06T18:46:58.539Z,90.20
2017-06-06T18:49:27.306Z,90.60
2017-06-06T18:51:56.090Z,90.50
2017-06-06T18:54:24.906Z,89.80
2017-06-06T18:56:53.698Z,88.80
2017-06-06T18:59:22.575Z,89.10
2017-06-06T19:01:51.386Z,88.40
2017-06-06T19:04:22.758Z,89.10
2017-06-06T19:06:51.618Z,88.70
2017-06-06T19:09:25.930Z,88.40
2017-06-06T19:12:00.446Z,89.00
2017-06-06T19:14:34.878Z,88.70
2017-06-06T19:17:03.662Z,88.20
2017-06-06T19:19:32.434Z,88.30
2017-06-06T19:22:01.202Z,85.80
2017-06-06T19:24:30.018Z,84.80
2017-06-06T19:26:58.795Z,85.30
2017-06-06T19:29:27.590Z,85.00
2017-06-06T19:31:56.370Z,85.20
2017-06-06T19:34:25.138Z,85.10
2017-06-06T19:36:53.902Z,84.60
2017-06-06T19:39:22.678Z,84.40
2017-06-06T19:41:51.453Z,84.90
2017-06-06T19:44:22.158Z,85.20
2017-06-06T19:46:50.926Z,85.20
2017-06-06T19:49:23.278Z,84.80
2017-06-06T19:51:52.049Z,85.00
2017-06-06T19:54:20.817Z,84.30
2017-06-06T19:56:49.594Z,85.30
2017-06-06T19:59:18.382Z,85.50
2017-06-06T20:01:47.158Z,85.20
2017-06-06T20:04:15.945Z,85.90
2017-06-06T20:06:44.733Z,85.60
2017-06-06T20:09:13.505Z,85.40
2017-06-06T20:11:42.300Z,85.10
2017-06-06T20:14:11.070Z,84.70
2017-06-06T20:16:39.850Z,84.80
2017-06-06T20:19:08.634Z,85.10
2017-06-06T20:21:37.413Z,84.40
2017-06-06T20:24:10.322Z,84.30
2017-06-06T20:26:40.109Z,82.80
2017-06-06T20:29:14.853Z,83.30
2017-06-06T20:31:49.549Z,83.20
2017-06-06T20:34:18.361Z,83.90
2017-06-06T20:36:48.050Z,84.80
2017-06-06T20:39:22.469Z,84.60
2017-06-06T20:42:01.301Z,84.30
2017-06-06T20:44:48.585Z,84.10
2017-06-06T20:47:26.758Z,84.20
2017-06-06T20:50:05.461Z,84.80
2017-06-06T20:52:45.357Z,85.50
2017-06-06T20:55:18.181Z,84.20
2017-06-06T20:57:52.709Z,84.00
2017-06-06T21:00:24.740Z,83.80
2017-06-06T21:02:53.513Z,83.20
2017-06-06T21:05:22.285Z,83.80
2017-06-06T21:07:51.077Z,84.30
2017-06-06T21:10:19.877Z,83.90
2017-06-06T21:12:48.645Z,82.70
2017-06-06T21:15:17.445Z,83.30
2017-06-06T21:17:50.149Z,82.40
2017-06-06T21:20:18.929Z,82.50
2017-06-06T21:23:06.881Z,82.00
2017-06-06T21:25:35.793Z,82.00
2017-06-06T21:28:25.212Z,82.60
2017-06-06T21:31:03.197Z,83.20
2017-06-06T21:33:31.977Z,83.00
2017-06-06T21:36:01.753Z,83.30
2017-06-06T21:38:32.501Z,82.70
2017-06-06T21:41:01.272Z,82.50
2017-06-06T21:43:30.976Z,82.80
2017-06-06T21:45:59.784Z,83.20
2017-06-06T21:48:29.473Z,83.20
2017-06-06T21:50:58.244Z,83.60
2017-06-06T21:53:27.045Z,83.60
2017-06-06T21:55:55.816Z,83.60
2017-06-06T21:58:26.484Z,82.50
2017-06-06T22:00:55.261Z,83.00
2017-06-06T22:03:24.032Z,83.80
2017-06-06T22:05:52.817Z,84.00
2017-06-06T22:08:21.596Z,84.60
2017-06-06T22:10:50.372Z,84.90
2017-06-06T22:13:20.081Z,85.10
2017-06-06T22:15:48.876Z,85.50
2017-06-06T22:18:17.628Z,85.50
2017-06-06T22:20:46.412Z,86.20
2017-06-06T22:23:15.189Z,85.90
2017-06-06T22:25:43.969Z,85.20
2017-06-06T22:28:13.197Z,85.70
2017-06-06T22:30:42.836Z,85.40
2017-06-06T22:33:11.608Z,85.30
2017-06-06T22:35:46.276Z,85.40
2017-06-06T22:38:15.167Z,85.40
2017-06-06T22:40:46.033Z,84.60
2017-06-06T22:43:14.772Z,85.00
2017-06-06T22:45:49.143Z,85.80
2017-06-06T22:48:18.044Z,84.80
2017-06-06T22:50:46.892Z,84.70
2017-06-06T22:53:15.712Z,84.80
2017-06-06T22:55:45.372Z,84.80
2017-06-06T22:58:16.248Z,85.00
2017-06-06T23:00:45.068Z,84.60
2017-06-06T23:03:13.924Z,84.60
2017-06-06T23:05:48.211Z,84.90
2017-06-06T23:08:16.987Z,84.30
2017-06-06T23:10:45.760Z,84.30
2017-06-06T23:13:14.548Z,84.40
2017-06-06T23:15:44.219Z,84.60
2017-06-06T23:18:14.035Z,84.10
2017-06-06T23:20:43.691Z,84.40
2017-06-06T23:23:12.464Z,84.10
2017-06-06T23:25:45.072Z,83.90
2017-06-06T23:28:13.856Z,83.80
2017-06-06T23:30:42.627Z,83.20
2017-06-06T23:33:11.407Z,83.40
2017-06-06T23:35:43.300Z,83.10
2017-06-06T23:38:13.015Z,83.20
2017-06-06T23:40:41.775Z,83.10
2017-06-06T23:43:11.495Z,82.60
2017-06-06T23:45:40.299Z,83.00
2017-06-06T23:48:09.983Z,83.40
2017-06-06T23:50:39.709Z,83.30
2017-06-06T23:53:12.315Z,83.30
2017-06-06T23:55:44.151Z,84.00
2017-06-06T23:58:12.935Z,84.40
